sensor_id;sensor_type;location;lat;lon;timestamp;pressure;altitude;pressure_sealevel;temperature;humidity
35989;BME280;22064;42.672;23.282;2023-03-18T00:01:26;95052.34;;;0.57;100.00
35989;BME280;22064;42.672;23.282;2023-03-18T00:03:52;95054.25;;;0.55;100.00
35989;BME280;22064;42.672;23.282;2023-03-18T00:06:19;95052.78;;;0.61;100.00
35989;BME280;22064;42.672;23.282;2023-03-18T00:08:45;95051.66;;;0.63;100.00
35989;BME280;22064;42.672;23.282;2023-03-18T00:11:14;95040.91;;;0.37;100.00
35989;BME280;22064;42.672;23.282;2023-03-18T00:13:40;95051.16;;;0.37;100.00
35989;BME280;22064;42.672;23.282;2023-03-18T00:16:08;95043.47;;;0.37;100.00
35989;BME280;22064;42.672;23.282;2023-03-18T00:18:36;95042.84;;;0.35;100.00
35989;BME280;22064;42.672;23.282;2023-03-18T00:21:04;95039.75;;;0.48;100.00
35989;BME280;22064;42.672;23.282;2023-03-18T00:23:31;95037.19;;;0.48;100.00
35989;BME280;22064;42.672;23.282;2023-03-18T00:25:58;95023.41;;;0.49;100.00
35989;BME280;22064;42.672;23.282;2023-03-18T00:28:26;95035.22;;;0.50;100.00
35989;BME280;22064;42.672;23.282;2023-03-18T00:30:53;95034.09;;;0.52;100.00
35989;BME280;22064;42.672;23.282;2023-03-18T00:33:20;95021.28;;;0.52;100.00
35989;BME280;22064;42.672;23.282;2023-03-18T00:35:46;95026.38;;;0.60;100.00
35989;BME280;22064;42.672;23.282;2023-03-18T00:38:13;95031.97;;;0.56;100.00
35989;BME280;22064;42.672;23.282;2023-03-18T00:40:50;95019.50;;;0.53;100.00
35989;BME280;22064;42.672;23.282;2023-03-18T00:43:29;95027.34;;;0.59;100.00
35989;BME280;22064;42.672;23.282;2023-03-18T00:45:59;95007.53;;;0.53;100.00
35989;BME280;22064;42.672;23.282;2023-03-18T00:48:26;95006.38;;;0.56;100.00
35989;BME280;22064;42.672;23.282;2023-03-18T00:50:52;95011.22;;;0.51;100.00
35989;BME280;22064;42.672;23.282;2023-03-18T00:53:19;95007.91;;;0.42;100.00
35989;BME280;22064;42.672;23.282;2023-03-18T00:55:46;95005.22;;;0.35;100.00
35989;BME280;22064;42.672;23.282;2023-03-18T00:58:12;94999.66;;;0.32;100.00
35989;BME280;22064;42.672;23.282;2023-03-18T01:00:39;94995.88;;;0.19;100.00
35989;BME280;22064;42.672;23.282;2023-03-18T01:03:06;94991.75;;;0.10;100.00
35989;BME280;22064;42.672;23.282;2023-03-18T01:05:33;94988.22;;;0.11;100.00
35989;BME280;22064;42.672;23.282;2023-03-18T01:08:02;94986.44;;;0.20;100.00
35989;BME280;22064;42.672;23.282;2023-03-18T01:10:29;94998.78;;;0.16;100.00
35989;BME280;22064;42.672;23.282;2023-03-18T01:12:56;94987.00;;;-0.01;100.00
35989;BME280;22064;42.672;23.282;2023-03-18T01:15:23;94988.00;;;-0.10;100.00
35989;BME280;22064;42.672;23.282;2023-03-18T01:17:51;94970.81;;;-0.25;100.00
35989;BME280;22064;42.672;23.282;2023-03-18T01:20:19;94984.00;;;-0.13;100.00
35989;BME280;22064;42.672;23.282;2023-03-18T01:22:48;94977.16;;;-0.12;100.00
35989;BME280;22064;42.672;23.282;2023-03-18T01:25:16;94986.06;;;0.00;100.00
35989;BME280;22064;42.672;23.282;2023-03-18T01:27:47;94987.59;;;0.09;100.00
35989;BME280;22064;42.672;23.282;2023-03-18T01:30:14;94972.41;;;0.08;100.00
35989;BME280;22064;42.672;23.282;2023-03-18T01:32:40;94976.56;;;0.09;100.00
35989;BME280;22064;42.672;23.282;2023-03-18T01:35:09;94977.44;;;-0.07;100.00
35989;BME280;22064;42.672;23.282;2023-03-18T01:37:37;94983.00;;;-0.35;100.00
35989;BME280;22064;42.672;23.282;2023-03-18T01:40:11;94976.63;;;-0.47;100.00
35989;BME280;22064;42.672;23.282;2023-03-18T01:42:39;94971.22;;;-0.52;100.00
35989;BME280;22064;42.672;23.282;2023-03-18T01:45:27;94969.66;;;-0.61;100.00
35989;BME280;22064;42.672;23.282;2023-03-18T01:47:56;94974.63;;;-0.68;100.00
35989;BME280;22064;42.672;23.282;2023-03-18T01:50:42;94967.63;;;-0.82;100.00
35989;BME280;22064;42.672;23.282;2023-03-18T01:53:12;94960.78;;;-0.90;100.00
35989;BME280;22064;42.672;23.282;2023-03-18T01:55:40;94973.38;;;-0.80;100.00
35989;BME280;22064;42.672;23.282;2023-03-18T01:58:12;94969.53;;;-0.84;100.00
35989;BME280;22064;42.672;23.282;2023-03-18T02:00:43;94964.13;;;-0.89;100.00
35989;BME280;22064;42.672;23.282;2023-03-18T02:03:11;94965.91;;;-0.90;100.00
35989;BME280;22064;42.672;23.282;2023-03-18T02:05:39;94960.63;;;-0.97;100.00
35989;BME280;22064;42.672;23.282;2023-03-18T02:08:05;94957.59;;;-1.00;100.00
35989;BME280;22064;42.672;23.282;2023-03-18T02:10:31;94955.69;;;-1.06;100.00
35989;BME280;22064;42.672;23.282;2023-03-18T02:13:03;94956.31;;;-1.04;100.00
35989;BME280;22064;42.672;23.282;2023-03-18T02:15:39;94953.78;;;-1.04;100.00
35989;BME280;22064;42.672;23.282;2023-03-18T02:18:19;94943.22;;;-1.09;100.00
35989;BME280;22064;42.672;23.282;2023-03-18T02:28:50;94957.31;;;-1.30;100.00
35989;BME280;22064;42.672;23.282;2023-03-18T02:31:17;94944.22;;;-1.35;100.00
35989;BME280;22064;42.672;23.282;2023-03-18T02:33:45;94958.91;;;-1.29;100.00
35989;BME280;22064;42.672;23.282;2023-03-18T02:36:23;94946.78;;;-1.27;100.00
35989;BME280;22064;42.672;23.282;2023-03-18T02:38:52;94954.91;;;-1.23;100.00
35989;BME280;22064;42.672;23.282;2023-03-18T02:41:25;94950.59;;;-1.23;100.00
35989;BME280;22064;42.672;23.282;2023-03-18T02:43:51;94952.38;;;-1.15;100.00
35989;BME280;22064;42.672;23.282;2023-03-18T02:49:04;94953.94;;;-1.06;100.00
35989;BME280;22064;42.672;23.282;2023-03-18T02:51:33;94940.22;;;-1.21;100.00
35989;BME280;22064;42.672;23.282;2023-03-18T02:54:07;94950.13;;;-1.18;100.00
35989;BME280;22064;42.672;23.282;2023-03-18T02:56:38;94949.94;;;-1.25;100.00
35989;BME280;22064;42.672;23.282;2023-03-18T02:59:04;94925.06;;;-1.39;100.00
35989;BME280;22064;42.672;23.282;2023-03-18T03:01:31;94946.28;;;-1.22;100.00
35989;BME280;22064;42.672;23.282;2023-03-18T03:03:59;94955.72;;;-1.23;100.00
35989;BME280;22064;42.672;23.282;2023-03-18T03:06:25;94949.66;;;-1.30;100.00
35989;BME280;22064;42.672;23.282;2023-03-18T03:08:51;94953.81;;;-1.37;100.00
35989;BME280;22064;42.672;23.282;2023-03-18T03:11:18;94946.16;;;-1.45;100.00
35989;BME280;22064;42.672;23.282;2023-03-18T03:13:45;94950.63;;;-1.39;100.00
35989;BME280;22064;42.672;23.282;2023-03-18T03:16:13;94953.16;;;-1.39;100.00
35989;BME280;22064;42.672;23.282;2023-03-18T03:18:41;94953.63;;;-1.44;100.00
35989;BME280;22064;42.672;23.282;2023-03-18T03:21:10;94947.72;;;-1.44;100.00
35989;BME280;22064;42.672;23.282;2023-03-18T03:23:36;94956.97;;;-1.19;100.00
35989;BME280;22064;42.672;23.282;2023-03-18T03:26:03;94962.25;;;-1.12;100.00
35989;BME280;22064;42.672;23.282;2023-03-18T03:28:29;94960.78;;;-1.06;100.00
35989;BME280;22064;42.672;23.282;2023-03-18T03:30:58;94974.06;;;-1.03;100.00
35989;BME280;22064;42.672;23.282;2023-03-18T03:33:24;94966.38;;;-0.95;100.00
35989;BME280;22064;42.672;23.282;2023-03-18T03:35:51;94972.00;;;-0.99;100.00
35989;BME280;22064;42.672;23.282;2023-03-18T03:38:17;94958.91;;;-1.21;100.00
35989;BME280;22064;42.672;23.282;2023-03-18T03:40:43;94963.38;;;-1.23;100.00
35989;BME280;22064;42.672;23.282;2023-03-18T03:43:11;94964.03;;;-1.21;100.00
35989;BME280;22064;42.672;23.282;2023-03-18T03:45:38;94956.81;;;-1.17;100.00
35989;BME280;22064;42.672;23.282;2023-03-18T03:48:04;94972.13;;;-1.01;100.00
35989;BME280;22064;42.672;23.282;2023-03-18T03:50:30;94960.00;;;-0.99;100.00
35989;BME280;22064;42.672;23.282;2023-03-18T03:52:56;94974.53;;;-0.99;100.00
35989;BME280;22064;42.672;23.282;2023-03-18T03:55:23;94956.81;;;-1.25;100.00
35989;BME280;22064;42.672;23.282;2023-03-18T03:57:50;94969.94;;;-1.36;100.00
35989;BME280;22064;42.672;23.282;2023-03-18T04:00:19;94974.22;;;-1.53;100.00
35989;BME280;22064;42.672;23.282;2023-03-18T04:02:49;94966.25;;;-1.67;100.00
35989;BME280;22064;42.672;23.282;2023-03-18T04:05:19;94970.41;;;-1.74;100.00
35989;BME280;22064;42.672;23.282;2023-03-18T04:07:47;94958.72;;;-1.93;100.00
35989;BME280;22064;42.672;23.282;2023-03-18T04:10:14;94975.66;;;-1.83;100.00
35989;BME280;22064;42.672;23.282;2023-03-18T04:12:42;94969.25;;;-1.96;100.00
35989;BME280;22064;42.672;23.282;2023-03-18T04:15:12;94970.97;;;-2.04;100.00
35989;BME280;22064;42.672;23.282;2023-03-18T04:17:39;94979.28;;;-2.02;100.00
35989;BME280;22064;42.672;23.282;2023-03-18T04:20:06;94978.66;;;-1.96;100.00
35989;BME280;22064;42.672;23.282;2023-03-18T04:22:33;94989.03;;;-1.90;100.00
35989;BME280;22064;42.672;23.282;2023-03-18T04:25:02;94993.00;;;-1.87;100.00
35989;BME280;22064;42.672;23.282;2023-03-18T04:27:28;94982.63;;;-1.94;100.00
35989;BME280;22064;42.672;23.282;2023-03-18T04:29:56;94997.06;;;-1.68;100.00
35989;BME280;22064;42.672;23.282;2023-03-18T04:32:29;95000.41;;;-1.51;100.00
35989;BME280;22064;42.672;23.282;2023-03-18T04:34:55;95005.53;;;-1.51;100.00
35989;BME280;22064;42.672;23.282;2023-03-18T04:37:21;95011.91;;;-1.39;100.00
35989;BME280;22064;42.672;23.282;2023-03-18T04:39:51;95004.25;;;-1.47;100.00
35989;BME280;22064;42.672;23.282;2023-03-18T04:42:16;95017.38;;;-1.34;100.00
35989;BME280;22064;42.672;23.282;2023-03-18T04:44:43;95004.09;;;-1.37;100.00
35989;BME280;22064;42.672;23.282;2023-03-18T04:47:10;95017.03;;;-1.39;100.00
35989;BME280;22064;42.672;23.282;2023-03-18T04:49:37;95015.44;;;-1.40;100.00
35989;BME280;22064;42.672;23.282;2023-03-18T04:52:05;95001.38;;;-1.36;100.00
35989;BME280;22064;42.672;23.282;2023-03-18T04:54:32;95017.03;;;-1.14;100.00
35989;BME280;22064;42.672;23.282;2023-03-18T04:57:02;95021.03;;;-1.04;100.00
35989;BME280;22064;42.672;23.282;2023-03-18T04:59:31;95016.22;;;-1.07;100.00
35989;BME280;22064;42.672;23.282;2023-03-18T05:02:02;95013.19;;;-1.02;100.00
35989;BME280;22064;42.672;23.282;2023-03-18T05:04:30;95027.91;;;-0.96;100.00
35989;BME280;22064;42.672;23.282;2023-03-18T05:06:56;95018.47;;;-0.96;100.00
35989;BME280;22064;42.672;23.282;2023-03-18T05:09:29;95016.38;;;-1.00;100.00
35989;BME280;22064;42.672;23.282;2023-03-18T05:11:56;95012.09;;;-1.00;100.00
35989;BME280;22064;42.672;23.282;2023-03-18T05:14:32;95029.00;;;-0.82;100.00
35989;BME280;22064;42.672;23.282;2023-03-18T05:16:59;95012.84;;;-0.75;100.00
35989;BME280;22064;42.672;23.282;2023-03-18T05:19:26;95028.16;;;-0.58;100.00
35989;BME280;22064;42.672;23.282;2023-03-18T05:22:02;95024.56;;;-0.33;100.00
35989;BME280;22064;42.672;23.282;2023-03-18T05:24:28;95012.56;;;-0.24;100.00
35989;BME280;22064;42.672;23.282;2023-03-18T05:26:54;95005.78;;;-0.17;100.00
35989;BME280;22064;42.672;23.282;2023-03-18T05:29:24;95011.81;;;-0.02;100.00
35989;BME280;22064;42.672;23.282;2023-03-18T05:31:57;95020.34;;;-0.09;100.00
35989;BME280;22064;42.672;23.282;2023-03-18T05:34:24;95018.25;;;-0.14;100.00
35989;BME280;22064;42.672;23.282;2023-03-18T05:36:51;95006.00;;;-0.35;100.00
35989;BME280;22064;42.672;23.282;2023-03-18T05:39:17;95002.84;;;-0.45;100.00
35989;BME280;22064;42.672;23.282;2023-03-18T05:41:43;94999.06;;;-0.57;100.00
35989;BME280;22064;42.672;23.282;2023-03-18T05:44:12;95016.91;;;-0.33;100.00
35989;BME280;22064;42.672;23.282;2023-03-18T05:46:40;95024.31;;;-0.54;100.00
35989;BME280;22064;42.672;23.282;2023-03-18T05:49:10;95021.94;;;-0.64;100.00
35989;BME280;22064;42.672;23.282;2023-03-18T05:51:46;95013.78;;;-0.76;100.00
35989;BME280;22064;42.672;23.282;2023-03-18T05:54:18;95028.34;;;-0.84;100.00
35989;BME280;22064;42.672;23.282;2023-03-18T05:56:44;95021.81;;;-0.87;100.00
35989;BME280;22064;42.672;23.282;2023-03-18T05:59:12;95032.50;;;-0.75;100.00
35989;BME280;22064;42.672;23.282;2023-03-18T06:01:47;95029.94;;;-0.67;100.00
35989;BME280;22064;42.672;23.282;2023-03-18T06:04:14;95043.50;;;-0.66;100.00
35989;BME280;22064;42.672;23.282;2023-03-18T06:06:42;95043.19;;;-0.63;100.00
35989;BME280;22064;42.672;23.282;2023-03-18T06:09:10;95042.22;;;-0.54;100.00
35989;BME280;22064;42.672;23.282;2023-03-18T06:11:38;95042.56;;;-0.65;100.00
35989;BME280;22064;42.672;23.282;2023-03-18T06:14:09;95040.47;;;-0.78;100.00
35989;BME280;22064;42.672;23.282;2023-03-18T06:16:36;95040.66;;;-0.88;100.00
35989;BME280;22064;42.672;23.282;2023-03-18T06:19:03;95041.28;;;-0.70;100.00
35989;BME280;22064;42.672;23.282;2023-03-18T06:21:30;95050.47;;;-0.36;100.00
35989;BME280;22064;42.672;23.282;2023-03-18T06:23:59;95048.53;;;-0.26;100.00
35989;BME280;22064;42.672;23.282;2023-03-18T06:26:27;95056.84;;;-0.15;100.00
35989;BME280;22064;42.672;23.282;2023-03-18T06:28:53;95047.78;;;-0.34;100.00
35989;BME280;22064;42.672;23.282;2023-03-18T06:31:19;95046.28;;;-0.20;100.00
35989;BME280;22064;42.672;23.282;2023-03-18T06:33:47;95042.53;;;-0.02;100.00
35989;BME280;22064;42.672;23.282;2023-03-18T06:36:15;95039.47;;;0.03;100.00
35989;BME280;22064;42.672;23.282;2023-03-18T06:38:45;95036.91;;;0.34;100.00
35989;BME280;22064;42.672;23.282;2023-03-18T06:41:11;95024.25;;;0.10;100.00
35989;BME280;22064;42.672;23.282;2023-03-18T06:43:45;95025.47;;;-0.09;100.00
35989;BME280;22064;42.672;23.282;2023-03-18T06:46:16;95020.38;;;-0.17;100.00
35989;BME280;22064;42.672;23.282;2023-03-18T06:48:43;95017.94;;;-0.19;100.00
35989;BME280;22064;42.672;23.282;2023-03-18T06:51:12;95026.41;;;-0.10;100.00
35989;BME280;22064;42.672;23.282;2023-03-18T06:53:40;95024.94;;;0.04;100.00
35989;BME280;22064;42.672;23.282;2023-03-18T06:56:07;95022.75;;;0.15;100.00
35989;BME280;22064;42.672;23.282;2023-03-18T06:58:44;95021.94;;;0.23;100.00
35989;BME280;22064;42.672;23.282;2023-03-18T07:01:11;95019.41;;;0.46;100.00
35989;BME280;22064;42.672;23.282;2023-03-18T07:03:40;95024.47;;;0.31;100.00
35989;BME280;22064;42.672;23.282;2023-03-18T07:06:08;95028.19;;;0.20;100.00
35989;BME280;22064;42.672;23.282;2023-03-18T07:08:37;95028.28;;;0.35;100.00
35989;BME280;22064;42.672;23.282;2023-03-18T07:11:04;95019.69;;;0.51;100.00
35989;BME280;22064;42.672;23.282;2023-03-18T07:13:32;95014.19;;;0.62;100.00
35989;BME280;22064;42.672;23.282;2023-03-18T07:15:59;95027.16;;;0.61;100.00
35989;BME280;22064;42.672;23.282;2023-03-18T07:18:26;95010.75;;;0.70;100.00
35989;BME280;22064;42.672;23.282;2023-03-18T07:20:52;95009.50;;;0.43;100.00
35989;BME280;22064;42.672;23.282;2023-03-18T07:23:20;95020.00;;;0.56;100.00
35989;BME280;22064;42.672;23.282;2023-03-18T07:25:47;95023.34;;;0.80;100.00
35989;BME280;22064;42.672;23.282;2023-03-18T07:28:13;95017.13;;;0.97;100.00
35989;BME280;22064;42.672;23.282;2023-03-18T07:30:40;95026.94;;;0.94;100.00
35989;BME280;22064;42.672;23.282;2023-03-18T07:33:06;95015.47;;;1.04;100.00
35989;BME280;22064;42.672;23.282;2023-03-18T07:35:32;95028.13;;;1.21;100.00
35989;BME280;22064;42.672;23.282;2023-03-18T07:37:58;95029.53;;;1.08;100.00
35989;BME280;22064;42.672;23.282;2023-03-18T07:40:24;95026.34;;;1.06;100.00
35989;BME280;22064;42.672;23.282;2023-03-18T07:42:49;95026.47;;;1.28;100.00
35989;BME280;22064;42.672;23.282;2023-03-18T07:45:16;95039.75;;;1.31;100.00
35989;BME280;22064;42.672;23.282;2023-03-18T07:47:42;95025.66;;;1.12;100.00
35989;BME280;22064;42.672;23.282;2023-03-18T07:50:09;95042.63;;;1.13;100.00
35989;BME280;22064;42.672;23.282;2023-03-18T07:52:35;95027.31;;;1.05;100.00
35989;BME280;22064;42.672;23.282;2023-03-18T07:55:02;95039.44;;;1.11;100.00
35989;BME280;22064;42.672;23.282;2023-03-18T07:57:28;95027.78;;;1.24;100.00
35989;BME280;22064;42.672;23.282;2023-03-18T07:59:54;95036.91;;;1.26;100.00
35989;BME280;22064;42.672;23.282;2023-03-18T08:02:20;95029.41;;;1.25;100.00
35989;BME280;22064;42.672;23.282;2023-03-18T08:04:46;95024.09;;;1.41;100.00
35989;BME280;22064;42.672;23.282;2023-03-18T08:07:12;95019.09;;;1.63;100.00
35989;BME280;22064;42.672;23.282;2023-03-18T08:09:38;95025.53;;;1.88;100.00
35989;BME280;22064;42.672;23.282;2023-03-18T08:12:04;95040.84;;;1.67;100.00
35989;BME280;22064;42.672;23.282;2023-03-18T08:14:30;95022.25;;;1.65;100.00
35989;BME280;22064;42.672;23.282;2023-03-18T08:16:56;95013.91;;;1.92;100.00
35989;BME280;22064;42.672;23.282;2023-03-18T08:19:22;95013.25;;;2.20;100.00
35989;BME280;22064;42.672;23.282;2023-03-18T08:21:48;95026.72;;;2.58;100.00
35989;BME280;22064;42.672;23.282;2023-03-18T08:24:14;95022.59;;;2.42;100.00
35989;BME280;22064;42.672;23.282;2023-03-18T08:26:40;95018.88;;;2.45;100.00
35989;BME280;22064;42.672;23.282;2023-03-18T08:29:06;95030.53;;;2.84;100.00
35989;BME280;22064;42.672;23.282;2023-03-18T08:31:31;95030.69;;;3.25;100.00
35989;BME280;22064;42.672;23.282;2023-03-18T08:33:57;95026.03;;;3.14;100.00
35989;BME280;22064;42.672;23.282;2023-03-18T08:36:24;95029.41;;;3.42;100.00
35989;BME280;22064;42.672;23.282;2023-03-18T08:38:50;95032.53;;;3.66;100.00
35989;BME280;22064;42.672;23.282;2023-03-18T08:41:16;95029.13;;;3.93;100.00
35989;BME280;22064;42.672;23.282;2023-03-18T08:43:42;95028.97;;;4.02;100.00
35989;BME280;22064;42.672;23.282;2023-03-18T08:46:09;95019.53;;;4.15;100.00
35989;BME280;22064;42.672;23.282;2023-03-18T08:48:35;95026.28;;;4.23;100.00
35989;BME280;22064;42.672;23.282;2023-03-18T08:51:05;95021.44;;;4.55;100.00
35989;BME280;22064;42.672;23.282;2023-03-18T08:53:37;95040.69;;;4.59;100.00
35989;BME280;22064;42.672;23.282;2023-03-18T08:56:03;95022.81;;;4.57;100.00
35989;BME280;22064;42.672;23.282;2023-03-18T08:58:30;95035.16;;;4.75;100.00
35989;BME280;22064;42.672;23.282;2023-03-18T09:00:56;95023.28;;;4.74;100.00
35989;BME280;22064;42.672;23.282;2023-03-18T09:03:23;95036.56;;;4.84;100.00
35989;BME280;22064;42.672;23.282;2023-03-18T09:05:50;95039.16;;;4.91;100.00
35989;BME280;22064;42.672;23.282;2023-03-18T09:08:18;95035.44;;;5.20;100.00
35989;BME280;22064;42.672;23.282;2023-03-18T09:10:45;95034.41;;;5.48;100.00
35989;BME280;22064;42.672;23.282;2023-03-18T09:13:11;95028.88;;;5.24;100.00
35989;BME280;22064;42.672;23.282;2023-03-18T09:15:37;95020.75;;;5.21;100.00
35989;BME280;22064;42.672;23.282;2023-03-18T09:18:04;95028.06;;;5.44;100.00
35989;BME280;22064;42.672;23.282;2023-03-18T09:20:30;95032.81;;;5.67;100.00
35989;BME280;22064;42.672;23.282;2023-03-18T09:22:58;95021.28;;;5.83;100.00
35989;BME280;22064;42.672;23.282;2023-03-18T09:25:24;95027.97;;;6.17;100.00
35989;BME280;22064;42.672;23.282;2023-03-18T09:27:52;95036.66;;;6.22;100.00
35989;BME280;22064;42.672;23.282;2023-03-18T09:30:18;95038.41;;;6.35;100.00
35989;BME280;22064;42.672;23.282;2023-03-18T09:32:44;95037.41;;;6.43;100.00
35989;BME280;22064;42.672;23.282;2023-03-18T09:35:11;95031.63;;;6.41;100.00
35989;BME280;22064;42.672;23.282;2023-03-18T09:37:37;95024.34;;;6.63;88.78
35989;BME280;22064;42.672;23.282;2023-03-18T09:40:04;95027.31;;;6.66;80.21
35989;BME280;22064;42.672;23.282;2023-03-18T09:42:52;95020.78;;;6.57;74.11
35989;BME280;22064;42.672;23.282;2023-03-18T09:56:06;95013.81;;;6.64;74.16
35989;BME280;22064;42.672;23.282;2023-03-18T10:01:05;95023.28;;;6.77;73.97
35989;BME280;22064;42.672;23.282;2023-03-18T10:06:17;95031.22;;;7.14;73.07
35989;BME280;22064;42.672;23.282;2023-03-18T10:11:31;95012.19;;;7.27;70.74
35989;BME280;22064;42.672;23.282;2023-03-18T10:16:45;95024.97;;;7.47;68.69
35989;BME280;22064;42.672;23.282;2023-03-18T10:19:13;95025.81;;;7.66;68.24
35989;BME280;22064;42.672;23.282;2023-03-18T10:25:52;95026.78;;;7.90;60.88
35989;BME280;22064;42.672;23.282;2023-03-18T10:33:44;95019.44;;;8.05;58.45
35989;BME280;22064;42.672;23.282;2023-03-18T10:36:18;95020.22;;;8.05;56.09
35989;BME280;22064;42.672;23.282;2023-03-18T10:38:49;95014.03;;;8.43;52.49
35989;BME280;22064;42.672;23.282;2023-03-18T10:41:22;95009.34;;;8.82;51.08
35989;BME280;22064;42.672;23.282;2023-03-18T10:43:52;95005.72;;;8.83;52.52
35989;BME280;22064;42.672;23.282;2023-03-18T10:46:20;95014.44;;;8.89;52.95
35989;BME280;22064;42.672;23.282;2023-03-18T10:48:56;95016.97;;;9.19;52.57
35989;BME280;22064;42.672;23.282;2023-03-18T10:54:14;94995.41;;;9.18;48.14
35989;BME280;22064;42.672;23.282;2023-03-18T10:56:44;95007.97;;;9.33;48.62
35989;BME280;22064;42.672;23.282;2023-03-18T10:59:13;94993.50;;;9.14;47.45
35989;BME280;22064;42.672;23.282;2023-03-18T11:01:45;94999.16;;;9.34;46.70
35989;BME280;22064;42.672;23.282;2023-03-18T11:04:16;94995.84;;;9.04;45.70
35989;BME280;22064;42.672;23.282;2023-03-18T11:07:02;94988.00;;;8.80;47.02
35989;BME280;22064;42.672;23.282;2023-03-18T11:09:34;94996.41;;;9.06;47.01
35989;BME280;22064;42.672;23.282;2023-03-18T11:12:06;94992.09;;;8.99;46.24
35989;BME280;22064;42.672;23.282;2023-03-18T11:14:38;94998.66;;;8.60;49.42
35989;BME280;22064;42.672;23.282;2023-03-18T11:17:19;94999.63;;;8.29;51.91
35989;BME280;22064;42.672;23.282;2023-03-18T11:19:47;94996.25;;;8.10;53.26
35989;BME280;22064;42.672;23.282;2023-03-18T11:24:42;95003.22;;;7.91;52.61
35989;BME280;22064;42.672;23.282;2023-03-18T11:29:48;94989.03;;;7.75;51.92
35989;BME280;22064;42.672;23.282;2023-03-18T11:34:54;94993.56;;;7.61;51.22
35989;BME280;22064;42.672;23.282;2023-03-18T11:37:26;94998.03;;;7.91;51.35
35989;BME280;22064;42.672;23.282;2023-03-18T11:40:25;94989.91;;;8.06;48.80
35989;BME280;22064;42.672;23.282;2023-03-18T11:42:56;94981.22;;;8.49;48.49
35989;BME280;22064;42.672;23.282;2023-03-18T11:45:43;94974.91;;;8.87;47.41
35989;BME280;22064;42.672;23.282;2023-03-18T11:48:35;94988.25;;;9.02;46.55
35989;BME280;22064;42.672;23.282;2023-03-18T11:56:34;94981.22;;;8.91;46.79
35989;BME280;22064;42.672;23.282;2023-03-18T11:59:16;94990.59;;;8.80;46.82
35989;BME280;22064;42.672;23.282;2023-03-18T12:04:42;94987.03;;;8.63;45.50
35989;BME280;22064;42.672;23.282;2023-03-18T12:07:32;94995.81;;;8.62;44.70
35989;BME280;22064;42.672;23.282;2023-03-18T12:15:53;94991.53;;;8.97;45.08
35989;BME280;22064;42.672;23.282;2023-03-18T12:18:42;94970.22;;;9.31;45.21
35989;BME280;22064;42.672;23.282;2023-03-18T12:34:59;94977.78;;;9.09;45.31
35989;BME280;22064;42.672;23.282;2023-03-18T12:45:22;94973.75;;;9.60;42.70
35989;BME280;22064;42.672;23.282;2023-03-18T12:47:55;94971.47;;;9.75;43.14
35989;BME280;22064;42.672;23.282;2023-03-18T12:50:27;94968.94;;;10.04;43.10
35989;BME280;22064;42.672;23.282;2023-03-18T12:55:38;94967.16;;;10.45;41.22
35989;BME280;22064;42.672;23.282;2023-03-18T12:58:10;94968.16;;;10.72;40.94
35989;BME280;22064;42.672;23.282;2023-03-18T13:00:46;94958.53;;;10.90;41.65
35989;BME280;22064;42.672;23.282;2023-03-18T13:03:32;94969.16;;;10.71;42.01
35989;BME280;22064;42.672;23.282;2023-03-18T13:06:13;94975.22;;;10.31;41.44
35989;BME280;22064;42.672;23.282;2023-03-18T13:17:38;94971.41;;;10.10;41.21
35989;BME280;22064;42.672;23.282;2023-03-18T13:20:19;94964.88;;;10.48;41.80
35989;BME280;22064;42.672;23.282;2023-03-18T13:22:50;94974.06;;;10.68;40.47
35989;BME280;22064;42.672;23.282;2023-03-18T13:30:52;94975.47;;;11.38;39.55
35989;BME280;22064;42.672;23.282;2023-03-18T13:39:05;94963.44;;;10.40;39.35
35989;BME280;22064;42.672;23.282;2023-03-18T13:41:53;94970.38;;;10.52;39.70
35989;BME280;22064;42.672;23.282;2023-03-18T13:44:38;94946.16;;;10.11;39.96
35989;BME280;22064;42.672;23.282;2023-03-18T13:47:14;94968.50;;;10.47;39.25
35989;BME280;22064;42.672;23.282;2023-03-18T13:49:41;94970.25;;;10.30;39.83
35989;BME280;22064;42.672;23.282;2023-03-18T13:52:41;94959.16;;;10.34;38.89
35989;BME280;22064;42.672;23.282;2023-03-18T14:00:36;94949.66;;;11.58;37.90
35989;BME280;22064;42.672;23.282;2023-03-18T14:03:05;94950.06;;;12.28;36.87
35989;BME280;22064;42.672;23.282;2023-03-18T14:05:39;94948.94;;;12.73;36.34
35989;BME280;22064;42.672;23.282;2023-03-18T14:13:57;94948.50;;;13.88;33.19
35989;BME280;22064;42.672;23.282;2023-03-18T14:19:23;94934.09;;;14.53;32.47
35989;BME280;22064;42.672;23.282;2023-03-18T14:22:22;94955.00;;;14.48;32.13
35989;BME280;22064;42.672;23.282;2023-03-18T14:27:52;94947.47;;;14.67;31.75
35989;BME280;22064;42.672;23.282;2023-03-18T14:33:05;94946.97;;;15.52;30.72
35989;BME280;22064;42.672;23.282;2023-03-18T14:37:13;94942.50;;;15.42;30.27
35989;BME280;22064;42.672;23.282;2023-03-18T14:39:19;94945.41;;;15.10;30.47
35989;BME280;22064;42.672;23.282;2023-03-18T14:41:51;94946.50;;;14.05;31.93
35989;BME280;22064;42.672;23.282;2023-03-18T14:44:27;94954.09;;;13.59;32.00
35989;BME280;22064;42.672;23.282;2023-03-18T14:46:59;94949.50;;;13.39;32.37
35989;BME280;22064;42.672;23.282;2023-03-18T14:49:41;94959.03;;;14.81;31.33
35989;BME280;22064;42.672;23.282;2023-03-18T14:52:30;94954.88;;;15.21;30.91
35989;BME280;22064;42.672;23.282;2023-03-18T14:55:04;94962.53;;;16.28;29.42
35989;BME280;22064;42.672;23.282;2023-03-18T14:57:32;94941.06;;;18.21;27.14
35989;BME280;22064;42.672;23.282;2023-03-18T14:59:58;94947.63;;;20.39;25.08
35989;BME280;22064;42.672;23.282;2023-03-18T15:02:32;94940.63;;;22.80;22.54
35989;BME280;22064;42.672;23.282;2023-03-18T15:04:59;94926.63;;;24.47;21.08
35989;BME280;22064;42.672;23.282;2023-03-18T15:07:37;94937.59;;;25.17;19.86
35989;BME280;22064;42.672;23.282;2023-03-18T15:10:14;94930.34;;;24.76;19.65
35989;BME280;22064;42.672;23.282;2023-03-18T15:15:34;94936.09;;;22.90;21.26